createdAt,value
2018-03-07T08:57:31.099Z,0.00
2018-03-07T08:58:14.102Z,0.00
2018-03-07T08:59:14.102Z,0.00
2018-03-07T09:00:14.065Z,0.00
2018-03-07T09:01:16.004Z,0.00
2018-03-07T09:02:14.095Z,0.00
2018-03-07T09:03:14.093Z,0.00
2018-03-07T09:04:14.096Z,0.00
2018-03-07T09:05:14.063Z,0.00
2018-03-07T09:06:15.058Z,0.00
2018-03-07T09:07:14.183Z,0.00
2018-03-07T09:08:14.977Z,0.00
2018-03-07T09:09:14.041Z,0.00
2018-03-07T09:10:14.055Z,0.00
2018-03-07T09:11:14.054Z,0.00
2018-03-07T09:12:15.060Z,0.00
2018-03-07T09:13:14.045Z,0.00
2018-03-07T09:14:14.048Z,0.00
2018-03-07T09:15:15.020Z,0.00
2018-03-07T09:16:14.232Z,0.00
2018-03-07T09:17:15.028Z,0.00
2018-03-07T09:18:14.274Z,0.00
2018-03-07T09:19:14.106Z,0.00
2018-03-07T09:20:14.064Z,0.00
2018-03-07T09:21:14.532Z,0.00
2018-03-07T09:22:14.592Z,0.00
2018-03-07T09:23:14.079Z,0.00
2018-03-07T09:24:14.735Z,0.00
2018-03-07T09:25:14.028Z,0.00
2018-03-07T09:26:14.047Z,0.00
2018-03-07T09:27:14.003Z,0.00
2018-03-07T09:28:14.026Z,0.00
2018-03-07T09:29:14.542Z,0.00
2018-03-07T09:30:14.552Z,0.00
2018-03-07T09:31:14.067Z,0.00
2018-03-07T09:32:13.982Z,0.00
2018-03-07T09:33:14.554Z,0.00
2018-03-07T09:34:14.558Z,0.00
2018-03-07T09:35:16.696Z,0.00
2018-03-07T09:36:14.060Z,0.00
2018-03-07T09:37:16.538Z,0.00
2018-03-07T09:38:35.018Z,0.00
2018-03-07T09:39:15.639Z,0.00
2018-03-07T09:40:14.060Z,0.00
2018-03-07T09:41:14.605Z,0.00
2018-03-07T09:42:14.071Z,0.00
2018-03-07T09:43:14.273Z,0.00
2018-03-07T09:44:14.109Z,0.00
2018-03-07T09:45:14.051Z,0.00
2018-03-07T09:46:14.576Z,0.00
2018-03-07T09:47:14.047Z,0.00
2018-03-07T09:48:14.008Z,0.00
2018-03-07T09:49:14.132Z,0.00
2018-03-07T09:50:13.966Z,0.00
2018-03-07T09:51:14.109Z,0.00
2018-03-07T09:52:14.285Z,0.00
2018-03-07T09:53:14.607Z,0.00
2018-03-07T09:54:14.143Z,0.00
2018-03-07T09:55:14.085Z,0.00
2018-03-07T09:56:14.402Z,0.00
2018-03-07T09:57:14.029Z,0.00
2018-03-07T09:58:14.088Z,0.00
2018-03-07T09:59:14.024Z,0.00
2018-03-07T10:00:15.251Z,0.00
2018-03-07T10:01:14.715Z,0.00
2018-03-07T10:02:14.058Z,0.00
2018-03-07T10:03:14.180Z,0.00
2018-03-07T10:04:14.059Z,0.00
2018-03-07T10:05:14.408Z,0.00
2018-03-07T10:06:14.142Z,0.00
2018-03-07T10:07:17.724Z,0.00
2018-03-07T10:08:14.193Z,0.00
2018-03-07T10:09:22.150Z,0.00
2018-03-07T10:11:07.982Z,0.00
2018-03-07T10:12:08.648Z,0.00
2018-03-07T10:13:08.299Z,0.00
2018-03-07T10:14:07.853Z,0.00
2018-03-07T10:15:08.084Z,0.00
2018-03-07T10:17:08.712Z,0.00
2018-03-07T10:18:08.040Z,0.00
2018-03-07T10:19:08.210Z,0.00
2018-03-07T10:20:07.956Z,0.00
2018-03-07T10:21:08.417Z,0.00
2018-03-07T10:22:08.859Z,0.00
2018-03-07T10:23:08.420Z,0.00
2018-03-07T10:24:07.865Z,0.00
2018-03-07T10:25:07.869Z,0.00
2018-03-07T10:26:07.906Z,0.00
2018-03-07T10:27:07.863Z,0.00
2018-03-07T10:28:07.861Z,0.00
2018-03-07T10:29:08.424Z,0.00
2018-03-07T10:30:10.439Z,0.00
2018-03-07T10:31:07.920Z,0.00
2018-03-07T10:32:07.888Z,0.00
2018-03-07T10:33:08.140Z,0.00
2018-03-07T10:34:07.882Z,0.00
2018-03-07T10:35:07.883Z,0.00
2018-03-07T10:36:07.886Z,0.00
2018-03-07T10:37:07.880Z,0.00
2018-03-07T10:38:07.912Z,0.00
2018-03-07T10:39:07.886Z,0.00
2018-03-07T10:40:07.889Z,0.00
2018-03-07T10:41:07.889Z,0.00
2018-03-07T10:42:08.432Z,0.00
2018-03-07T10:43:07.894Z,0.00
2018-03-07T10:44:07.935Z,0.00
2018-03-07T10:45:07.918Z,0.00
2018-03-07T10:46:07.904Z,0.00
2018-03-07T10:47:07.917Z,0.00
2018-03-07T10:48:08.428Z,0.00
2018-03-07T10:49:07.930Z,0.00
2018-03-07T10:50:07.930Z,0.00
2018-03-07T10:51:07.911Z,0.00
2018-03-07T10:52:07.912Z,0.00
2018-03-07T10:53:07.913Z,0.00
2018-03-07T10:54:07.943Z,0.00
2018-03-07T10:55:07.916Z,0.00
2018-03-07T10:56:07.913Z,0.00
2018-03-07T10:57:07.928Z,0.00
2018-03-07T10:58:07.928Z,0.00
2018-03-07T10:59:07.945Z,0.00
2018-03-07T11:00:07.919Z,0.00
2018-03-07T11:01:07.958Z,0.00
2018-03-07T11:02:07.964Z,0.00
2018-03-07T11:03:07.955Z,0.00
2018-03-07T11:04:08.015Z,0.00
2018-03-07T11:05:07.938Z,0.00
2018-03-07T11:06:07.944Z,0.00
2018-03-07T11:07:07.929Z,0.00
2018-03-07T11:08:07.940Z,0.00
2018-03-07T11:09:07.932Z,0.00
2018-03-07T11:10:07.934Z,0.00
2018-03-07T11:11:07.933Z,0.00
2018-03-07T11:12:07.935Z,0.00
2018-03-07T11:13:08.462Z,0.00
2018-03-07T11:14:07.939Z,0.00
2018-03-07T11:15:07.950Z,0.00
2018-03-07T11:16:08.893Z,0.00
2018-03-07T11:17:07.941Z,0.00
2018-03-07T11:18:08.039Z,0.00
2018-03-07T11:19:07.952Z,0.00
2018-03-07T11:20:14.980Z,0.00
2018-03-07T11:21:07.950Z,0.00
2018-03-07T11:22:07.950Z,0.00
2018-03-07T11:23:07.962Z,0.00
2018-03-07T11:24:07.953Z,0.00
2018-03-07T11:25:07.956Z,0.00
2018-03-07T11:26:07.959Z,0.00
2018-03-07T11:27:07.985Z,0.00
2018-03-07T11:28:08.096Z,0.00
2018-03-07T11:29:07.963Z,0.00
2018-03-07T11:30:07.979Z,0.00
2018-03-07T11:31:07.968Z,0.00
2018-03-07T11:32:07.971Z,0.00
2018-03-07T11:33:07.974Z,0.00
2018-03-07T11:34:07.976Z,0.00
2018-03-07T11:35:07.982Z,0.00
2018-03-07T11:36:08.013Z,0.00
2018-03-07T11:37:07.982Z,0.00
2018-03-07T11:38:07.996Z,0.00
2018-03-07T11:39:07.994Z,0.00
2018-03-07T11:40:07.997Z,0.00
2018-03-07T11:41:08.020Z,0.00
2018-03-07T11:42:07.993Z,0.00
2018-03-07T11:43:08.014Z,0.00
2018-03-07T11:44:08.031Z,0.00
2018-03-07T11:45:08.003Z,0.00
2018-03-07T11:46:08.001Z,0.00
2018-03-07T11:47:08.009Z,0.00
2018-03-07T11:48:08.008Z,0.00
2018-03-07T11:49:08.015Z,0.00
2018-03-07T11:50:08.017Z,0.00
2018-03-07T11:51:08.015Z,0.00
2018-03-07T11:52:08.019Z,0.00
2018-03-07T11:53:08.024Z,0.00
2018-03-07T11:54:08.038Z,0.00
2018-03-07T11:55:08.026Z,0.00
2018-03-07T11:56:08.088Z,0.00
2018-03-07T11:57:08.031Z,0.00
2018-03-07T11:58:08.037Z,0.00
2018-03-07T11:59:08.043Z,0.00
2018-03-07T12:00:08.049Z,0.00
2018-03-07T12:01:08.045Z,0.00
2018-03-07T12:02:08.059Z,0.00
2018-03-07T12:03:08.052Z,0.00
2018-03-07T12:04:08.057Z,0.00
2018-03-07T12:05:08.068Z,0.00
2018-03-07T12:06:08.061Z,0.00
2018-03-07T12:07:08.063Z,0.00
2018-03-07T12:08:08.068Z,0.00
2018-03-07T12:09:08.074Z,0.00
2018-03-07T12:10:08.073Z,0.00
2018-03-07T12:11:08.073Z,0.00
2018-03-07T12:12:08.100Z,0.00
2018-03-07T12:13:08.095Z,0.00
2018-03-07T12:14:08.095Z,0.00
2018-03-07T12:15:08.082Z,0.00
2018-03-07T12:16:08.086Z,0.00
2018-03-07T12:17:08.122Z,0.00
2018-03-07T12:18:08.090Z,0.00
2018-03-07T12:19:08.096Z,0.00
2018-03-07T12:20:08.096Z,0.00
2018-03-07T12:21:08.100Z,0.00
2018-03-07T12:22:08.147Z,0.00
2018-03-07T12:23:08.105Z,0.00
2018-03-07T12:24:08.122Z,0.00
2018-03-07T12:25:08.107Z,0.00
2018-03-07T12:26:08.170Z,0.00
2018-03-07T12:27:08.122Z,0.00
2018-03-07T12:28:08.115Z,0.00
2018-03-07T12:29:08.117Z,0.00
2018-03-07T12:30:08.120Z,0.00
2018-03-07T12:31:08.122Z,0.00
2018-03-07T12:32:08.120Z,0.00
2018-03-07T12:33:08.122Z,0.00
2018-03-07T12:34:08.127Z,0.00
2018-03-07T12:35:08.141Z,0.00
2018-03-07T12:36:08.147Z,0.00
2018-03-07T12:37:08.130Z,0.00
2018-03-07T12:38:08.129Z,0.00
2018-03-07T12:39:08.137Z,0.00
2018-03-07T12:40:08.135Z,0.00
2018-03-07T12:41:08.138Z,0.00
2018-03-07T12:42:08.160Z,0.00
2018-03-07T12:43:08.143Z,0.00
2018-03-07T12:44:08.196Z,0.00
2018-03-07T12:45:08.143Z,0.00
2018-03-07T12:46:08.143Z,0.00
2018-03-07T12:47:08.166Z,0.00
2018-03-07T12:48:08.156Z,0.00
2018-03-07T12:49:08.155Z,0.00
2018-03-07T12:50:08.183Z,0.00
2018-03-07T12:51:08.167Z,0.00
2018-03-07T12:52:08.154Z,0.00
2018-03-07T12:53:08.155Z,0.00
2018-03-07T12:54:08.152Z,0.00
2018-03-07T12:55:08.157Z,0.00
2018-03-07T12:56:08.161Z,0.00
2018-03-07T12:57:08.157Z,0.00
2018-03-07T12:58:08.160Z,0.00
2018-03-07T12:59:08.166Z,0.00
2018-03-07T13:00:08.988Z,0.00
2018-03-07T13:01:08.160Z,0.00
2018-03-07T13:02:08.164Z,0.00
2018-03-07T13:03:08.159Z,0.00
2018-03-07T13:04:08.165Z,0.00
2018-03-07T13:05:08.159Z,0.00
2018-03-07T13:06:08.165Z,0.00
2018-03-07T13:07:08.161Z,0.00
2018-03-07T13:08:08.161Z,0.00
2018-03-07T13:09:08.161Z,0.00
2018-03-07T13:10:08.167Z,0.00
2018-03-07T13:11:08.166Z,0.00
2018-03-07T13:12:08.996Z,0.00
2018-03-07T13:13:08.163Z,0.00
2018-03-07T13:14:08.162Z,0.00
2018-03-07T13:15:08.163Z,0.00
2018-03-07T13:16:08.167Z,0.00
2018-03-07T13:17:08.170Z,0.00
2018-03-07T13:18:08.166Z,0.00
2018-03-07T13:19:08.227Z,0.00
2018-03-07T13:20:08.169Z,0.00
2018-03-07T13:21:08.177Z,0.00
2018-03-07T13:22:08.169Z,0.00
2018-03-07T13:23:08.172Z,0.00
2018-03-07T13:24:08.172Z,0.00
2018-03-07T13:25:08.182Z,0.00
2018-03-07T13:26:08.176Z,0.00
2018-03-07T13:27:08.172Z,0.00
2018-03-07T13:28:08.184Z,0.00
2018-03-07T13:29:08.176Z,0.00
2018-03-07T13:30:08.180Z,0.00
2018-03-07T13:31:08.174Z,0.00
2018-03-07T13:32:08.180Z,0.00
2018-03-07T13:33:08.178Z,0.00
2018-03-07T13:34:08.180Z,0.00
2018-03-07T13:35:08.202Z,0.00
2018-03-07T13:36:08.192Z,0.00
2018-03-07T13:37:08.186Z,0.00
2018-03-07T13:38:08.179Z,0.00
2018-03-07T13:39:08.200Z,0.00
2018-03-07T13:40:08.179Z,0.00
2018-03-07T13:41:08.175Z,0.00
2018-03-07T13:42:08.174Z,0.00
2018-03-07T13:43:08.184Z,0.00
2018-03-07T13:44:08.175Z,0.00
2018-03-07T13:45:08.173Z,0.00
2018-03-07T13:46:08.173Z,0.00
2018-03-07T13:47:08.175Z,0.00
2018-03-07T13:48:08.174Z,0.00
2018-03-07T13:49:08.183Z,0.00
2018-03-07T13:50:08.168Z,0.00
2018-03-07T13:51:08.171Z,0.00
2018-03-07T13:52:08.186Z,0.00
2018-03-07T13:53:08.166Z,0.00
2018-03-07T13:54:08.162Z,0.00
2018-03-07T13:55:08.186Z,0.00
2018-03-07T13:56:08.182Z,0.00
2018-03-07T13:57:08.160Z,0.00
2018-03-07T13:58:08.157Z,0.00
2018-03-07T13:59:08.154Z,0.00
2018-03-07T14:00:08.154Z,0.00
2018-03-07T14:01:08.151Z,0.00
2018-03-07T14:02:08.150Z,0.00
2018-03-07T14:03:08.145Z,0.00
2018-03-07T14:04:08.143Z,0.00
2018-03-07T14:05:08.143Z,0.00
2018-03-07T14:06:08.136Z,0.00
2018-03-07T14:07:08.135Z,0.00
2018-03-07T14:08:08.135Z,0.00
2018-03-07T14:09:08.134Z,0.00
2018-03-07T14:10:08.137Z,0.00
2018-03-07T14:11:08.125Z,0.00
2018-03-07T14:12:08.119Z,0.00
2018-03-07T14:13:08.121Z,0.00
2018-03-07T14:14:08.115Z,0.00
2018-03-07T14:15:08.114Z,0.00
2018-03-07T14:16:09.014Z,0.00
2018-03-07T14:17:08.108Z,0.00
2018-03-07T14:18:08.098Z,0.00
2018-03-07T14:19:08.093Z,0.00
2018-03-07T14:20:08.091Z,0.00
2018-03-07T14:21:08.091Z,0.00
2018-03-07T14:22:08.081Z,0.00
2018-03-07T14:23:08.082Z,0.00
2018-03-07T14:24:08.085Z,0.00
2018-03-07T14:25:08.071Z,0.00
2018-03-07T14:26:08.065Z,0.00
2018-03-07T14:27:08.108Z,0.00
2018-03-07T14:28:08.057Z,0.00
2018-03-07T14:29:08.049Z,0.00
2018-03-07T14:30:08.049Z,0.00
2018-03-07T14:31:09.038Z,0.00
2018-03-07T14:32:08.038Z,0.00
2018-03-07T14:33:08.036Z,0.00
2018-03-07T14:34:08.040Z,0.00
2018-03-07T14:35:08.019Z,0.00
2018-03-07T14:36:08.018Z,0.09
2018-03-07T14:37:08.012Z,0.29
2018-03-07T14:38:08.006Z,0.48
2018-03-07T14:39:08.002Z,0.96
2018-03-07T14:40:07.996Z,0.96
2018-03-07T14:41:07.991Z,0.86
2018-03-07T14:42:07.986Z,0.96
2018-03-07T14:43:07.974Z,1.15
2018-03-07T14:44:07.968Z,1.15
2018-03-07T14:45:07.961Z,1.34
2018-03-07T14:46:07.951Z,1.25
2018-03-07T14:47:07.955Z,1.63
2018-03-07T14:48:07.941Z,2.01
2018-03-07T14:49:07.931Z,2.39
2018-03-07T14:50:07.921Z,2.68
2018-03-07T14:51:07.914Z,3.16
2018-03-07T14:52:07.907Z,3.25
2018-03-07T14:53:07.900Z,4.39
2018-03-07T14:54:07.890Z,5.07
2018-03-07T14:55:07.945Z,5.35
2018-03-07T14:56:07.874Z,5.64
2018-03-07T14:57:07.860Z,5.92
2018-03-07T14:58:07.850Z,6.21
2018-03-07T14:59:07.846Z,5.83
2018-03-07T15:00:07.834Z,5.92
2018-03-07T15:01:07.828Z,6.30
2018-03-07T15:02:07.813Z,6.59
2018-03-07T15:03:07.805Z,6.59
2018-03-07T15:04:07.797Z,6.96
2018-03-07T15:05:07.780Z,7.06
2018-03-07T15:06:07.772Z,7.63
2018-03-07T15:07:07.760Z,8.09
2018-03-07T15:08:07.753Z,9.05
2018-03-07T15:09:07.736Z,9.70
2018-03-07T15:10:07.727Z,10.08
2018-03-07T15:11:07.717Z,11.31
2018-03-07T15:12:07.709Z,12.45
2018-03-07T15:13:07.690Z,13.20
2018-03-07T15:14:07.693Z,13.95
2018-03-07T15:15:07.671Z,14.52
2018-03-07T15:16:07.656Z,14.89
2018-03-07T15:17:07.648Z,15.75
2018-03-07T15:18:07.627Z,16.31
2018-03-07T15:19:07.619Z,16.88
2018-03-07T15:20:07.604Z,17.54
2018-03-07T15:21:07.588Z,18.48
2018-03-07T15:22:07.575Z,19.15
2018-03-07T15:23:07.563Z,18.95
2018-03-07T15:24:07.554Z,19.61
2018-03-07T15:25:07.535Z,20.18
2018-03-07T15:26:07.524Z,20.47
2018-03-07T15:27:07.503Z,20.83
2018-03-07T15:28:07.514Z,21.78
2018-03-07T15:29:07.480Z,22.06
2018-03-07T15:30:07.461Z,22.44
2018-03-07T15:31:07.446Z,22.72
2018-03-07T15:32:07.436Z,22.82
2018-03-07T15:33:07.413Z,23.09
2018-03-07T15:34:07.397Z,22.81
2018-03-07T15:35:07.395Z,23.09
2018-03-07T15:36:07.367Z,23.09
2018-03-07T15:37:07.357Z,23.94
2018-03-07T15:38:07.338Z,23.85
2018-03-07T15:39:07.323Z,24.23
2018-03-07T15:40:07.308Z,24.42
2018-03-07T15:41:07.290Z,24.69
2018-03-07T15:42:07.273Z,25.07
2018-03-07T15:43:07.257Z,25.16
2018-03-07T15:44:07.241Z,25.35
2018-03-07T15:45:07.244Z,25.45
2018-03-07T15:46:07.212Z,25.26
2018-03-07T15:47:07.192Z,25.45
2018-03-07T15:48:07.186Z,25.63
2018-03-07T15:49:07.161Z,25.63
2018-03-07T15:50:07.169Z,26.11
2018-03-07T15:51:07.124Z,26.39
2018-03-07T15:52:07.112Z,26.30
2018-03-07T15:53:07.092Z,26.20
2018-03-07T15:54:07.091Z,26.20
2018-03-07T15:55:07.060Z,26.49
2018-03-07T15:56:07.044Z,26.39
2018-03-07T15:57:07.031Z,26.11
2018-03-07T15:58:07.009Z,26.38
2018-03-07T15:59:06.994Z,26.57
2018-03-07T16:00:06.975Z,26.57
2018-03-07T16:01:07.520Z,26.38
2018-03-07T16:02:06.939Z,27.33
2018-03-07T16:03:06.946Z,27.42
2018-03-07T16:04:06.909Z,28.27
2018-03-07T16:05:06.893Z,28.84
2018-03-07T16:06:06.876Z,29.12
2018-03-07T16:07:06.859Z,29.41
2018-03-07T16:08:06.841Z,29.41
2018-03-07T16:09:06.820Z,29.69
2018-03-07T16:10:06.805Z,29.69
2018-03-07T16:11:06.788Z,29.69
2018-03-07T16:12:06.771Z,29.60
2018-03-07T16:13:06.753Z,29.60
2018-03-07T16:14:06.733Z,30.07
2018-03-07T16:15:06.717Z,30.54
2018-03-07T16:16:06.700Z,30.73
2018-03-07T16:17:06.696Z,30.73
2018-03-07T16:18:06.671Z,30.91
2018-03-07T16:19:06.653Z,31.10
2018-03-07T16:20:06.633Z,31.39
2018-03-07T16:21:06.614Z,31.01
2018-03-07T16:22:06.599Z,31.01
2018-03-07T16:23:06.578Z,30.91
2018-03-07T16:24:06.563Z,30.82
2018-03-07T16:25:06.565Z,31.01
2018-03-07T16:26:06.524Z,31.20
2018-03-07T16:27:06.507Z,31.39
2018-03-07T16:28:06.490Z,31.56
2018-03-07T16:29:06.492Z,31.18
2018-03-07T16:30:06.459Z,31.09
2018-03-07T16:31:06.435Z,30.80
2018-03-07T16:32:06.416Z,30.90
2018-03-07T16:33:06.406Z,31.09
2018-03-07T16:34:06.391Z,31.09
2018-03-07T16:35:06.369Z,31.56
2018-03-07T16:36:06.346Z,31.66
2018-03-07T16:37:06.330Z,31.85
2018-03-07T16:38:06.315Z,31.85
2018-03-07T16:39:06.294Z,32.60
2018-03-07T16:40:06.292Z,32.70
2018-03-07T16:41:06.258Z,32.51
2018-03-07T16:42:06.236Z,32.89
2018-03-07T16:43:06.220Z,32.79
2018-03-07T16:44:06.207Z,33.17
2018-03-07T16:45:06.184Z,33.36
2018-03-07T16:46:06.166Z,33.36
2018-03-07T16:47:06.147Z,33.45
2018-03-07T16:48:06.132Z,33.54
2018-03-07T16:49:06.113Z,34.40
2018-03-07T16:50:06.107Z,34.30
2018-03-07T16:51:06.125Z,34.30
2018-03-07T16:52:06.118Z,34.59
2018-03-07T16:53:06.055Z,34.68
2018-03-07T16:54:06.052Z,34.78
2018-03-07T16:55:05.998Z,34.97
2018-03-07T16:56:05.991Z,34.68
2018-03-07T16:57:05.965Z,34.68
2018-03-07T16:58:05.960Z,34.49
2018-03-07T16:59:05.941Z,34.49
2018-03-07T17:00:05.905Z,34.59
2018-03-07T17:01:05.913Z,34.40
2018-03-07T17:02:05.931Z,34.02
2018-03-07T17:03:05.868Z,34.30
2018-03-07T17:04:05.830Z,34.30
2018-03-07T17:05:05.839Z,34.59
2018-03-07T17:06:05.845Z,34.21
2018-03-07T17:07:05.782Z,34.21
2018-03-07T17:08:05.778Z,34.40
2018-03-07T17:09:06.561Z,34.40
2018-03-07T17:10:05.743Z,34.30
2018-03-07T17:11:05.799Z,34.11
2018-03-07T17:12:05.716Z,34.40
2018-03-07T17:13:05.680Z,34.30
2018-03-07T17:14:05.700Z,34.21
2018-03-07T17:15:05.637Z,34.21
2018-03-07T17:16:06.678Z,34.11
2018-03-07T17:17:05.593Z,34.02
2018-03-07T17:18:05.614Z,33.81
2018-03-07T17:19:05.592Z,34.21
2018-03-07T17:20:05.535Z,34.40
2018-03-07T17:21:05.519Z,34.30
2018-03-07T17:22:05.566Z,34.47
2018-03-07T17:23:05.538Z,34.28
2018-03-07T17:24:05.494Z,34.28
2018-03-07T17:25:05.452Z,34.38
2018-03-07T17:26:05.536Z,34.10
2018-03-07T17:27:05.455Z,34.38
2018-03-07T17:28:05.507Z,34.28
2018-03-07T17:29:05.431Z,34.19
2018-03-07T17:30:05.376Z,34.19
2018-03-07T17:31:05.404Z,34.47
2018-03-07T17:32:05.363Z,34.47
2018-03-07T17:33:05.294Z,34.38
2018-03-07T17:34:05.336Z,34.10
2018-03-07T17:35:05.287Z,34.19
2018-03-07T17:36:05.321Z,34.38
2018-03-07T17:37:05.373Z,34.57
2018-03-07T17:38:05.312Z,35.14
2018-03-07T17:39:05.269Z,34.76
2018-03-07T17:40:05.227Z,34.95
2018-03-07T17:41:05.281Z,34.85
2018-03-07T17:42:06.171Z,34.95
2018-03-07T17:43:05.958Z,34.85
2018-03-07T17:44:05.242Z,34.57
2018-03-07T17:45:06.146Z,34.76
2018-03-07T17:46:05.285Z,35.04
2018-03-07T17:47:05.155Z,35.04
2018-03-07T17:48:05.977Z,35.23
2018-03-07T17:49:05.097Z,34.95
2018-03-07T17:50:06.465Z,34.85
2018-03-07T17:51:05.453Z,34.95
2018-03-07T17:52:05.127Z,35.04
2018-03-07T17:53:05.450Z,35.42
2018-03-07T17:54:04.944Z,35.61
2018-03-07T17:55:04.990Z,35.33
2018-03-07T17:56:04.955Z,35.04
2018-03-07T17:57:05.538Z,34.76
2018-03-07T17:59:04.901Z,35.52
2018-03-07T18:00:04.826Z,35.42
2018-03-07T18:01:04.834Z,35.33
2018-03-07T18:02:05.579Z,35.33
2018-03-07T18:03:05.511Z,35.04
2018-03-07T18:04:04.890Z,34.57
2018-03-07T18:05:06.001Z,34.66
2018-03-07T18:06:05.531Z,34.85
2018-03-07T18:07:04.774Z,35.04
2018-03-07T18:08:04.714Z,35.04
2018-03-07T18:09:04.810Z,34.47
2018-03-07T18:10:06.499Z,34.66
2018-03-07T18:11:05.607Z,34.47
2018-03-07T18:12:04.705Z,34.38
2018-03-07T18:13:05.573Z,34.76
2018-03-07T18:14:04.532Z,34.76
2018-03-07T18:15:05.578Z,35.14
2018-03-07T18:16:04.497Z,35.14
2018-03-07T18:17:04.558Z,35.23
2018-03-07T18:18:05.034Z,35.33
2018-03-07T18:19:04.461Z,35.33
2018-03-07T18:20:05.002Z,34.95
2018-03-07T18:21:04.443Z,34.76
2018-03-07T18:22:04.553Z,35.04
2018-03-07T18:23:04.368Z,34.95
2018-03-07T18:24:04.342Z,35.23
2018-03-07T18:25:04.332Z,34.85
2018-03-07T18:26:04.445Z,34.47
2018-03-07T18:27:04.433Z,35.04
2018-03-07T18:28:05.182Z,34.85
2018-03-07T18:29:04.402Z,34.95
2018-03-07T18:30:04.362Z,34.95
2018-03-07T18:31:04.282Z,35.23
2018-03-07T18:32:04.243Z,35.33
2018-03-07T18:33:04.164Z,35.33
2018-03-07T18:34:04.273Z,35.04
2018-03-07T18:35:04.118Z,35.04
2018-03-07T18:36:05.187Z,34.95
2018-03-07T18:37:04.168Z,34.85
2018-03-07T18:38:04.154Z,34.95
2018-03-07T18:39:04.163Z,34.66
2018-03-07T18:40:05.052Z,34.95
2018-03-07T18:41:04.495Z,35.14
2018-03-07T18:42:04.044Z,35.04
2018-03-07T18:43:07.672Z,34.76
2018-03-07T18:44:04.019Z,35.14
2018-03-07T18:45:04.500Z,34.76
2018-03-07T18:46:03.995Z,34.66
2018-03-07T18:47:03.920Z,34.76
2018-03-07T18:48:03.891Z,34.85
2018-03-07T18:49:03.919Z,34.85
2018-03-07T18:50:04.615Z,35.23
2018-03-07T18:51:03.906Z,35.42
2018-03-07T18:52:04.615Z,35.04
2018-03-07T18:53:03.864Z,35.04
2018-03-07T18:54:03.799Z,35.23
2018-03-07T18:55:04.718Z,35.33
2018-03-07T18:56:03.748Z,35.04
2018-03-07T18:57:03.694Z,35.04
2018-03-07T18:58:03.696Z,34.74
2018-03-07T18:59:03.737Z,35.21
2018-03-07T19:00:03.735Z,35.23
2018-03-07T19:01:04.500Z,35.23
2018-03-07T19:02:03.652Z,35.40
2018-03-07T19:03:03.632Z,35.61
2018-03-07T19:04:03.557Z,35.61
2018-03-07T19:05:04.531Z,35.61
2018-03-07T19:06:03.559Z,35.61
2018-03-07T19:07:03.580Z,35.61
2018-03-07T19:08:03.488Z,35.89
2018-03-07T19:09:03.993Z,36.27
2018-03-07T19:10:05.764Z,35.89
2018-03-07T19:11:03.680Z,35.61
2018-03-07T19:12:03.414Z,35.52
2018-03-07T19:13:03.366Z,35.61
2018-03-07T19:14:03.402Z,35.61
2018-03-07T19:15:03.376Z,35.42
2018-03-07T19:16:03.387Z,35.71
2018-03-07T19:17:03.462Z,35.89
2018-03-07T19:18:03.991Z,35.89
2018-03-07T19:19:03.308Z,35.71
2018-03-07T19:20:03.992Z,35.89
2018-03-07T19:21:03.245Z,35.97
2018-03-07T19:22:03.218Z,36.07
2018-03-07T19:23:03.205Z,36.07
2018-03-07T19:24:03.173Z,35.88
2018-03-07T19:25:03.181Z,36.07
2018-03-07T19:26:03.150Z,36.16
2018-03-07T19:27:03.123Z,36.16
2018-03-07T19:28:03.111Z,36.16
2018-03-07T19:29:03.050Z,36.72
2018-03-07T19:30:03.121Z,36.63
2018-03-07T19:31:03.036Z,36.63
2018-03-07T19:32:03.010Z,36.63
2018-03-07T19:33:03.035Z,36.72
2018-03-07T19:34:02.944Z,36.54
2018-03-07T19:35:02.974Z,36.82
2018-03-07T19:36:03.047Z,37.10
2018-03-07T19:37:02.888Z,37.01
2018-03-07T19:38:02.900Z,36.72
2018-03-07T19:39:02.848Z,37.19
2018-03-07T19:40:02.882Z,36.91
2018-03-07T19:41:02.908Z,37.10
2018-03-07T19:42:02.882Z,37.01
2018-03-07T19:43:02.803Z,37.10
2018-03-07T19:44:02.785Z,37.57
2018-03-07T19:45:02.778Z,37.48
2018-03-07T19:46:02.843Z,37.19
2018-03-07T19:47:02.731Z,37.19
2018-03-07T19:48:02.725Z,37.19
2018-03-07T19:49:02.771Z,37.48
2018-03-07T19:50:02.658Z,37.67
2018-03-07T19:51:03.488Z,37.12
2018-03-07T19:52:02.643Z,37.67
2018-03-07T19:53:02.611Z,37.97
2018-03-07T19:54:02.576Z,37.85
2018-03-07T19:55:02.543Z,37.76
2018-03-07T19:56:02.567Z,37.85
2018-03-07T19:57:02.566Z,37.85
2018-03-07T19:58:02.537Z,37.67
2018-03-07T19:59:02.499Z,37.88
2018-03-07T20:00:03.151Z,37.97
2018-03-07T20:01:03.486Z,37.69
2018-03-07T20:02:02.987Z,38.07
2018-03-07T20:03:02.392Z,37.40
2018-03-07T20:04:03.061Z,37.19
2018-03-07T20:05:02.380Z,37.67
2018-03-07T20:06:02.386Z,37.95
2018-03-07T20:07:02.987Z,37.95
2018-03-07T20:08:02.326Z,38.04
2018-03-07T20:09:02.261Z,38.23
2018-03-07T20:10:02.244Z,37.95
2018-03-07T20:11:02.275Z,37.95
2018-03-07T20:12:02.264Z,38.33
2018-03-07T20:13:02.257Z,38.52
2018-03-07T20:14:02.209Z,38.42
2018-03-07T20:15:02.158Z,38.33
2018-03-07T20:16:02.222Z,38.52
2018-03-07T20:17:02.138Z,39.09
2018-03-07T20:18:02.986Z,38.61
2018-03-07T20:19:02.145Z,39.18
2018-03-07T20:20:03.000Z,39.09
2018-03-07T20:21:02.036Z,38.99
2018-03-07T20:22:02.020Z,39.09
2018-03-07T20:23:02.012Z,39.37
2018-03-07T20:24:01.962Z,39.37
2018-03-07T20:25:01.943Z,39.46
2018-03-07T20:26:01.924Z,39.37
2018-03-07T20:27:01.919Z,39.37
2018-03-07T20:28:01.882Z,39.28
2018-03-07T20:29:01.860Z,39.65
2018-03-07T20:30:01.874Z,39.75
2018-03-07T20:31:01.844Z,39.75
2018-03-07T20:32:01.874Z,39.84
2018-03-07T20:33:01.797Z,39.75
2018-03-07T20:34:01.812Z,39.75
2018-03-07T20:35:01.801Z,39.65
2018-03-07T20:36:01.805Z,39.56
2018-03-07T20:37:01.728Z,39.65
2018-03-07T20:38:01.702Z,39.56
2018-03-07T20:39:01.680Z,40.03
2018-03-07T20:40:01.768Z,39.84
2018-03-07T20:41:01.670Z,40.03
2018-03-07T20:42:01.631Z,39.84
2018-03-07T20:43:01.657Z,39.94
2018-03-07T20:44:01.564Z,39.75
2018-03-07T20:45:01.545Z,39.84
2018-03-07T20:46:01.532Z,40.31
2018-03-07T20:47:01.506Z,40.50
2018-03-07T20:48:01.534Z,40.78
2018-03-07T20:49:01.481Z,40.88
2018-03-07T20:50:01.615Z,40.50
2018-03-07T20:51:01.428Z,40.22
2018-03-07T20:52:01.438Z,40.41
2018-03-07T20:53:01.427Z,40.12
2018-03-07T20:54:01.454Z,40.22
2018-03-07T20:55:01.417Z,40.12
2018-03-07T20:56:01.330Z,40.31
2018-03-07T20:57:01.420Z,40.12
2018-03-07T20:58:01.361Z,40.03
2018-03-07T20:59:01.288Z,39.84
2018-03-07T21:00:01.289Z,40.03
2018-03-07T21:01:01.314Z,39.94
2018-03-07T21:02:01.234Z,40.69
2018-03-07T21:03:01.237Z,39.94
2018-03-07T21:04:01.273Z,39.84
2018-03-07T21:05:01.273Z,40.03
2018-03-07T21:06:01.182Z,39.94
2018-03-07T21:07:01.128Z,40.12
2018-03-07T21:08:01.203Z,39.84
2018-03-07T21:09:01.094Z,39.56
2018-03-07T21:10:01.096Z,39.65
2018-03-07T21:11:01.092Z,39.75
2018-03-07T21:12:01.063Z,39.75
2018-03-07T21:13:01.002Z,39.84
2018-03-07T21:14:00.970Z,40.59
2018-03-07T21:15:01.053Z,40.03
2018-03-07T21:16:00.940Z,39.75
2018-03-07T21:17:00.930Z,39.94
2018-03-07T21:18:01.026Z,40.03
2018-03-07T21:19:01.570Z,40.03
2018-03-07T21:20:01.012Z,40.12
2018-03-07T21:21:01.480Z,39.94
2018-03-07T21:22:01.481Z,39.94
2018-03-07T21:23:01.493Z,40.03
2018-03-07T21:24:01.714Z,39.94
2018-03-07T21:25:00.780Z,39.84
2018-03-07T21:26:00.803Z,39.84
2018-03-07T21:27:01.533Z,39.84
2018-03-07T21:28:01.560Z,39.65
2018-03-07T21:29:00.793Z,39.75
2018-03-07T21:30:02.545Z,39.84
2018-03-07T21:31:00.722Z,39.75
2018-03-07T21:32:00.689Z,39.84
2018-03-07T21:33:00.673Z,39.94
2018-03-07T21:34:00.730Z,39.84
2018-03-07T21:35:00.599Z,39.75
2018-03-07T21:36:00.602Z,39.94
2018-03-07T21:38:01.597Z,39.84
2018-03-07T21:39:01.549Z,39.75
2018-03-07T21:40:01.095Z,39.84
2018-03-07T21:41:01.167Z,39.65
2018-03-07T21:42:01.229Z,40.05
2018-03-07T21:43:01.067Z,39.94
2018-03-07T21:44:21.473Z,39.94
2018-03-07T21:45:00.407Z,39.94
2018-03-07T21:46:01.549Z,40.03
2018-03-07T21:47:02.614Z,40.03
2018-03-07T21:48:01.049Z,39.84
2018-03-07T21:49:01.287Z,39.75
2018-03-07T21:50:21.495Z,39.84
2018-03-07T21:51:01.122Z,39.75
2018-03-07T21:52:01.139Z,39.65
2018-03-07T21:53:01.050Z,39.65
2018-03-07T21:54:00.323Z,39.56
2018-03-07T21:55:00.337Z,39.56
2018-03-07T21:56:21.446Z,39.56
2018-03-07T21:57:00.385Z,39.37
2018-03-07T21:58:00.206Z,39.46
2018-03-07T21:59:01.110Z,39.37
2018-03-07T22:00:00.106Z,39.75
2018-03-07T22:01:00.300Z,39.84
2018-03-07T22:02:21.097Z,39.75
2018-03-07T22:03:00.059Z,39.84
2018-03-07T22:04:00.073Z,39.75
2018-03-07T22:05:00.049Z,39.75